Terminal Aerodrome Forecast
Issued by NWS

Home | Current Version | Previous Version | Text Only | Print | Product List | Glossary On
Versions: 1 2 3 4 5 6 7 8 9 10 11 12 13 14 15 16 17
323
FTUS42 KTAE 060159 AAA
TAFVLD
TAF AMD
KVLD 060159Z 0602/0624 17007KT 5SM RA BR VCTS OVC010CB
      TEMPO 0602/0604 18010G18KT 2SM TSRA OVC007CB
     FM060700 17006KT 4SM -SHRA BR OVC005
     FM061700 23010G18KT P6SM BKN030=

USA.gov is the U.S. government's official web portal to all federal, state and local government web resources and services.